createdAt,value
2023-05-05T00:01:35.698Z,99481.80
2023-05-05T00:04:03.814Z,99475.60
2023-05-05T00:06:31.551Z,99476.00
2023-05-05T00:08:59.195Z,99482.40
2023-05-05T00:11:26.900Z,99475.60
2023-05-05T00:13:54.528Z,99471.00
2023-05-05T00:16:23.479Z,99472.20
2023-05-05T00:18:51.427Z,99468.00
2023-05-05T00:21:19.135Z,99471.00
2023-05-05T00:23:46.738Z,99469.60
2023-05-05T00:26:14.476Z,99468.40
2023-05-05T00:28:42.182Z,99468.40
2023-05-05T00:31:09.806Z,99474.40
2023-05-05T00:33:37.433Z,99459.20
2023-05-05T00:36:05.674Z,99460.80
2023-05-05T00:38:33.408Z,99457.60
2023-05-05T00:41:01.322Z,99455.60
2023-05-05T00:43:28.955Z,99450.80
2023-05-05T00:46:40.505Z,99450.60
2023-05-05T00:49:08.790Z,99449.40
2023-05-05T00:51:36.579Z,99443.40
2023-05-05T00:54:05.781Z,99449.20
2023-05-05T00:56:33.416Z,99448.40
2023-05-05T00:59:03.857Z,99456.00
2023-05-05T01:01:31.596Z,99450.60
2023-05-05T01:03:59.372Z,99453.80
2023-05-05T01:06:54.060Z,99452.00
2023-05-05T01:10:01.032Z,99445.00
2023-05-05T01:13:06.812Z,99446.40
2023-05-05T01:15:44.161Z,99445.80
2023-05-05T01:18:28.530Z,99452.20
2023-05-05T01:21:12.608Z,99461.40
2023-05-05T01:24:05.369Z,99458.60
2023-05-05T01:27:06.808Z,99463.20
2023-05-05T01:29:59.198Z,99463.20
2023-05-05T01:32:31.718Z,99460.60
2023-05-05T01:35:14.704Z,99455.00
2023-05-05T01:38:06.570Z,99456.80
2023-05-05T01:40:43.652Z,99456.60
2023-05-05T01:43:15.232Z,99454.60
2023-05-05T01:45:45.744Z,99455.80
2023-05-05T01:48:18.364Z,99455.80
2023-05-05T01:50:48.349Z,99455.80
2023-05-05T01:53:19.027Z,99457.40
2023-05-05T01:55:50.204Z,99453.80
2023-05-05T01:58:22.678Z,99454.00
2023-05-05T02:00:51.899Z,99449.60
2023-05-05T02:03:23.729Z,99447.20
2023-05-05T02:05:53.852Z,99447.60
2023-05-05T02:08:24.153Z,99446.00
2023-05-05T02:10:54.626Z,99448.60
2023-05-05T02:13:26.199Z,99446.80
2023-05-05T02:15:56.083Z,99441.00
2023-05-05T02:18:27.098Z,99442.00
2023-05-05T02:20:54.831Z,99443.00
2023-05-05T02:23:23.263Z,99442.00
2023-05-05T02:25:57.463Z,99433.20
2023-05-05T02:28:51.290Z,99432.40
2023-05-05T02:31:22.783Z,99426.80
2023-05-05T02:33:55.966Z,99430.80
2023-05-05T02:36:28.813Z,99435.80
2023-05-05T02:39:02.295Z,99431.20
2023-05-05T02:41:33.326Z,99429.40
2023-05-05T02:44:05.175Z,99429.80
2023-05-05T02:46:33.616Z,99429.20
2023-05-05T02:49:01.348Z,99421.60
2023-05-05T02:51:29.021Z,99421.40
2023-05-05T02:53:56.936Z,99424.20
2023-05-05T02:56:41.209Z,99419.00
2023-05-05T02:59:31.050Z,99423.20
2023-05-05T03:02:29.657Z,99423.00
2023-05-05T03:05:12.961Z,99417.80
2023-05-05T03:08:16.103Z,99420.00
2023-05-05T03:11:06.554Z,99413.80
2023-05-05T03:13:43.024Z,99403.60
2023-05-05T03:16:13.220Z,99410.20
2023-05-05T03:18:42.625Z,99407.80
2023-05-05T03:21:11.442Z,99407.20
2023-05-05T03:23:39.486Z,99404.80
2023-05-05T03:26:07.188Z,99407.20
2023-05-05T03:28:34.800Z,99410.00
2023-05-05T03:31:03.848Z,99408.60
2023-05-05T03:33:31.467Z,99410.40
2023-05-05T03:35:59.146Z,99414.40
2023-05-05T03:38:26.789Z,99413.60
2023-05-05T03:40:56.149Z,99412.80
2023-05-05T03:43:23.770Z,99414.20
2023-05-05T03:45:51.428Z,99416.60
2023-05-05T03:48:19.067Z,99417.00
2023-05-05T03:50:46.855Z,99425.60
2023-05-05T03:53:14.564Z,99432.00
2023-05-05T03:55:42.228Z,99433.20
2023-05-05T03:58:09.885Z,99429.80
2023-05-05T04:00:37.534Z,99427.80
2023-05-05T04:03:05.347Z,99433.40
2023-05-05T04:05:33.113Z,99426.20
2023-05-05T04:08:00.784Z,99423.80
2023-05-05T04:10:28.397Z,99423.80
2023-05-05T04:12:56.151Z,99418.00
2023-05-05T04:15:23.903Z,99421.20
2023-05-05T04:17:51.621Z,99421.20
2023-05-05T04:20:19.511Z,99424.20
2023-05-05T04:22:47.467Z,99435.00
2023-05-05T04:25:15.121Z,99429.20
2023-05-05T04:27:42.890Z,99434.40
2023-05-05T04:30:11.190Z,99438.00
2023-05-05T04:32:38.898Z,99442.00
2023-05-05T04:35:07.851Z,99442.60
2023-05-05T04:37:35.772Z,99451.80
2023-05-05T04:40:04.269Z,99457.20
2023-05-05T04:42:32.529Z,99454.80
2023-05-05T04:45:00.242Z,99460.20
2023-05-05T04:47:27.975Z,99456.00
2023-05-05T04:49:56.085Z,99453.20
2023-05-05T04:52:23.836Z,99460.20
2023-05-05T04:54:51.531Z,99459.60
2023-05-05T04:57:19.195Z,99462.40
2023-05-05T04:59:46.842Z,99462.40
2023-05-05T05:02:14.670Z,99467.80
2023-05-05T05:04:42.540Z,99469.20
2023-05-05T05:07:10.187Z,99474.40
2023-05-05T05:09:37.835Z,99470.80
2023-05-05T05:12:07.945Z,99474.80
2023-05-05T05:14:39.947Z,99476.20
2023-05-05T05:17:07.587Z,99474.40
2023-05-05T05:19:35.339Z,99465.80
2023-05-05T05:22:02.995Z,99469.80
2023-05-05T05:24:30.818Z,99468.20
2023-05-05T05:26:58.651Z,99467.40
2023-05-05T05:29:27.144Z,99474.00
2023-05-05T05:31:54.816Z,99468.80
2023-05-05T05:34:22.552Z,99469.20
2023-05-05T05:36:50.261Z,99468.60
2023-05-05T05:39:18.002Z,99471.60
2023-05-05T05:41:45.875Z,99470.00
2023-05-05T05:44:13.661Z,99473.60
2023-05-05T05:46:41.408Z,99478.00
2023-05-05T05:49:09.124Z,99473.80
2023-05-05T05:51:36.740Z,99470.40
2023-05-05T05:54:04.676Z,99473.40
2023-05-05T05:56:32.422Z,99476.80
2023-05-05T05:59:02.487Z,99471.40
2023-05-05T06:01:30.329Z,99473.60
2023-05-05T06:03:58.289Z,99472.40
2023-05-05T06:06:26.188Z,99475.60
2023-05-05T06:08:54.041Z,99467.80
2023-05-05T06:11:22.281Z,99471.80
2023-05-05T06:13:49.878Z,99473.00
2023-05-05T06:16:17.634Z,99469.60
2023-05-05T06:18:45.397Z,99466.40
2023-05-05T06:21:13.548Z,99469.20
2023-05-05T06:23:42.230Z,99459.80
2023-05-05T06:26:09.889Z,99462.00
2023-05-05T06:28:37.668Z,99458.60
2023-05-05T06:31:05.456Z,99457.60
2023-05-05T06:33:33.350Z,99458.40
2023-05-05T06:36:01.034Z,99463.00
2023-05-05T06:38:28.639Z,99455.60
2023-05-05T06:40:58.555Z,99456.00
2023-05-05T06:43:26.288Z,99457.40
2023-05-05T06:45:53.870Z,99460.20
2023-05-05T06:48:22.212Z,99458.20
2023-05-05T06:50:49.862Z,99458.00
2023-05-05T06:53:17.972Z,99448.80
2023-05-05T06:55:47.201Z,99447.80
2023-05-05T06:58:15.013Z,99451.40
2023-05-05T07:00:43.403Z,99444.60
2023-05-05T07:03:11.938Z,99449.40
2023-05-05T07:05:39.816Z,99449.40
2023-05-05T07:08:09.086Z,99447.60
2023-05-05T07:10:37.181Z,99441.80
2023-05-05T07:13:07.590Z,99443.60
2023-05-05T07:15:35.636Z,99440.80
2023-05-05T07:18:03.565Z,99442.40
2023-05-05T07:20:31.529Z,99433.40
2023-05-05T07:22:59.196Z,99432.20
2023-05-05T07:25:27.005Z,99433.00
2023-05-05T07:27:54.738Z,99432.40
2023-05-05T07:30:23.051Z,99438.00
2023-05-05T07:32:51.485Z,99432.40
2023-05-05T07:35:19.163Z,99432.60
2023-05-05T07:37:47.474Z,99430.60
2023-05-05T07:40:15.606Z,99433.40
2023-05-05T07:42:43.407Z,99438.60
2023-05-05T07:45:11.327Z,99433.60
2023-05-05T07:47:39.245Z,99434.80
2023-05-05T07:50:07.873Z,99430.60
2023-05-05T07:52:46.651Z,99432.60
2023-05-05T07:55:17.636Z,99435.40
2023-05-05T07:57:45.455Z,99435.60
2023-05-05T08:00:14.009Z,99435.40
2023-05-05T08:02:41.885Z,99446.40
2023-05-05T08:05:10.070Z,99438.60
2023-05-05T08:07:41.203Z,99440.00
2023-05-05T08:10:12.078Z,99437.20
2023-05-05T08:12:40.595Z,99438.40
2023-05-05T08:15:09.193Z,99439.40
2023-05-05T08:17:52.677Z,99433.80
2023-05-05T08:20:21.103Z,99430.80
2023-05-05T08:22:49.736Z,99430.20
2023-05-05T08:25:17.595Z,99423.80
2023-05-05T08:27:45.718Z,99424.00
2023-05-05T08:30:13.689Z,99418.80
2023-05-05T08:32:41.591Z,99422.00
2023-05-05T08:35:09.831Z,99415.80
2023-05-05T08:37:37.927Z,99418.80
2023-05-05T08:40:06.785Z,99419.60
2023-05-05T08:42:37.825Z,99428.00
2023-05-05T08:45:10.187Z,99422.60
2023-05-05T08:47:39.672Z,99417.60
2023-05-05T08:50:11.219Z,99413.20
2023-05-05T08:52:44.527Z,99414.60
2023-05-05T08:55:26.686Z,99417.00
2023-05-05T08:58:01.240Z,99410.60
2023-05-05T09:00:29.556Z,99413.00
2023-05-05T09:02:59.849Z,99411.40
2023-05-05T09:05:27.714Z,99409.60
2023-05-05T09:07:55.658Z,99417.20
2023-05-05T09:10:26.114Z,99419.40
2023-05-05T09:12:53.896Z,99418.00
2023-05-05T09:15:21.591Z,99418.20
2023-05-05T09:17:49.958Z,99420.00
2023-05-05T09:20:17.640Z,99415.00
2023-05-05T09:22:47.600Z,99416.60
2023-05-05T09:25:18.313Z,99422.80
2023-05-05T09:27:49.383Z,99417.40
2023-05-05T09:30:24.920Z,99416.20
2023-05-05T09:32:55.489Z,99412.60
2023-05-05T09:35:23.941Z,99409.40
2023-05-05T09:37:51.649Z,99415.40
2023-05-05T09:40:21.452Z,99416.40
2023-05-05T09:43:00.684Z,99413.60
2023-05-05T09:45:28.630Z,99406.60
2023-05-05T09:47:59.885Z,99405.60
2023-05-05T09:50:30.882Z,99403.80
2023-05-05T09:53:03.720Z,99399.20
2023-05-05T09:55:31.706Z,99405.40
2023-05-05T09:58:19.506Z,99410.60
2023-05-05T10:00:47.949Z,99406.40
2023-05-05T10:03:16.736Z,99403.00
2023-05-05T10:05:52.923Z,99405.20
2023-05-05T10:08:24.075Z,99406.20
2023-05-05T10:10:57.344Z,99398.60
2023-05-05T10:13:25.473Z,99397.40
2023-05-05T10:15:56.134Z,99398.00
2023-05-05T10:18:26.998Z,99397.00
2023-05-05T10:21:02.220Z,99395.20
2023-05-05T10:23:54.148Z,99387.60
2023-05-05T10:26:23.994Z,99384.60
2023-05-05T10:28:56.446Z,99387.00
2023-05-05T10:31:37.046Z,99384.80
2023-05-05T10:34:10.502Z,99391.40
2023-05-05T10:36:39.686Z,99386.80
2023-05-05T10:39:09.478Z,99386.00
2023-05-05T10:41:38.249Z,99380.80
2023-05-05T10:44:07.061Z,99373.80
2023-05-05T10:46:34.853Z,99375.80
2023-05-05T10:49:21.680Z,99379.80
2023-05-05T10:52:20.827Z,99370.40
2023-05-05T10:55:02.210Z,99369.00
2023-05-05T10:57:33.495Z,99369.40
2023-05-05T11:00:01.445Z,99370.20
2023-05-05T11:02:31.505Z,99362.40
2023-05-05T11:05:22.845Z,99361.80
2023-05-05T11:07:51.965Z,99366.60
2023-05-05T11:10:21.221Z,99368.80
2023-05-05T11:12:52.118Z,99362.80
2023-05-05T11:15:26.202Z,99362.20
2023-05-05T11:18:05.786Z,99362.80
2023-05-05T11:20:40.970Z,99359.80
2023-05-05T11:23:08.540Z,99354.00
2023-05-05T11:25:40.890Z,99356.00
2023-05-05T11:28:10.518Z,99351.00
2023-05-05T11:31:18.383Z,99355.00
2023-05-05T11:33:46.445Z,99349.80
2023-05-05T11:36:17.918Z,99348.40
2023-05-05T11:39:22.863Z,99340.00
2023-05-05T11:42:19.179Z,99348.40
2023-05-05T11:44:47.122Z,99342.80
2023-05-05T11:47:15.012Z,99338.80
2023-05-05T11:49:42.720Z,99342.40
2023-05-05T11:52:14.124Z,99342.40
2023-05-05T11:54:47.867Z,99345.00
2023-05-05T11:57:21.051Z,99347.40
2023-05-05T12:00:01.520Z,99343.00
2023-05-05T12:02:30.353Z,99338.80
2023-05-05T12:05:00.201Z,99335.80
2023-05-05T12:07:31.716Z,99328.00
2023-05-05T12:10:00.897Z,99327.80
2023-05-05T12:12:40.308Z,99326.80
2023-05-05T12:15:09.949Z,99326.40
2023-05-05T12:17:45.121Z,99326.00
2023-05-05T12:20:13.604Z,99328.00
2023-05-05T12:22:41.946Z,99327.00
2023-05-05T12:25:10.374Z,99322.60
2023-05-05T12:27:38.770Z,99321.00
2023-05-05T12:30:18.250Z,99317.40
2023-05-05T12:32:46.235Z,99314.00
2023-05-05T12:35:14.735Z,99317.20
2023-05-05T12:37:43.629Z,99318.00
2023-05-05T12:40:51.863Z,99311.40
2023-05-05T12:43:31.383Z,99308.20
2023-05-05T12:46:10.405Z,99306.40
2023-05-05T12:48:45.006Z,99308.60
2023-05-05T12:51:23.568Z,99304.80
2023-05-05T12:54:11.711Z,99298.20
2023-05-05T12:56:47.892Z,99292.20
2023-05-05T12:59:21.464Z,99290.60
2023-05-05T13:01:55.782Z,99289.40
2023-05-05T13:04:27.993Z,99285.40
2023-05-05T13:07:14.401Z,99284.60
2023-05-05T13:09:42.387Z,99283.40
2023-05-05T13:12:12.914Z,99277.00
2023-05-05T13:14:41.948Z,99277.80
2023-05-05T13:17:11.485Z,99275.80
2023-05-05T13:19:46.435Z,99273.00
2023-05-05T13:22:14.391Z,99267.00
2023-05-05T13:24:51.601Z,99265.00
2023-05-05T13:27:21.002Z,99259.20
2023-05-05T13:29:48.973Z,99255.20
2023-05-05T13:32:16.617Z,99253.60
2023-05-05T13:34:44.346Z,99249.80
2023-05-05T13:37:12.092Z,99250.40
2023-05-05T13:39:39.839Z,99249.00
2023-05-05T13:42:07.437Z,99248.60
2023-05-05T13:44:35.748Z,99241.00
2023-05-05T13:47:03.656Z,99240.40
2023-05-05T13:49:31.369Z,99242.00
2023-05-05T13:51:59.421Z,99241.80
2023-05-05T13:54:28.122Z,99245.20
2023-05-05T13:56:55.787Z,99243.60
2023-05-05T13:59:23.511Z,99237.40
2023-05-05T14:01:51.279Z,99240.00
2023-05-05T14:04:19.073Z,99240.60
2023-05-05T14:06:46.853Z,99245.60
2023-05-05T14:09:14.685Z,99238.60
2023-05-05T14:11:42.348Z,99232.60
2023-05-05T14:14:10.009Z,99240.20
2023-05-05T14:16:37.744Z,99238.60
2023-05-05T14:19:05.480Z,99238.80
2023-05-05T14:21:33.266Z,99237.20
2023-05-05T14:24:01.067Z,99238.40
2023-05-05T14:26:29.163Z,99235.80
2023-05-05T14:28:56.806Z,99235.20
2023-05-05T14:31:24.487Z,99234.20
2023-05-05T14:33:53.321Z,99239.20
2023-05-05T14:36:21.178Z,99237.40
2023-05-05T14:38:48.981Z,99235.40
2023-05-05T14:41:16.722Z,99239.60
2023-05-05T14:43:44.371Z,99240.80
2023-05-05T14:46:12.425Z,99238.40
2023-05-05T14:48:40.206Z,99233.20
2023-05-05T14:51:07.878Z,99232.40
2023-05-05T14:53:35.852Z,99238.80
2023-05-05T14:56:03.577Z,99240.00
2023-05-05T14:58:31.228Z,99235.80
2023-05-05T15:01:00.482Z,99235.60
2023-05-05T15:03:28.501Z,99234.20
2023-05-05T15:05:56.624Z,99227.20
2023-05-05T15:08:25.161Z,99226.40
2023-05-05T15:10:52.870Z,99228.80
2023-05-05T15:13:20.616Z,99227.20
2023-05-05T15:15:49.013Z,99228.00
2023-05-05T15:18:16.855Z,99231.80
2023-05-05T15:20:44.592Z,99224.20
2023-05-05T15:23:12.253Z,99228.80
2023-05-05T15:25:40.045Z,99227.00
2023-05-05T15:28:07.767Z,99224.40
2023-05-05T15:30:35.475Z,99225.80
2023-05-05T15:33:03.357Z,99225.60
2023-05-05T15:35:31.313Z,99218.80
2023-05-05T15:37:59.082Z,99214.60
2023-05-05T15:40:26.768Z,99215.60
2023-05-05T15:42:54.597Z,99217.00
2023-05-05T15:45:22.264Z,99218.00
2023-05-05T15:47:50.669Z,99219.00
2023-05-05T15:50:18.593Z,99221.40
2023-05-05T15:52:48.068Z,99213.60
2023-05-05T15:55:17.496Z,99220.20
2023-05-05T15:57:45.214Z,99218.80
2023-05-05T16:00:14.195Z,99218.20
2023-05-05T16:02:42.026Z,99219.20
2023-05-05T16:05:10.404Z,99217.00
2023-05-05T16:07:39.804Z,99224.40
2023-05-05T16:10:08.883Z,99220.20
2023-05-05T16:12:36.798Z,99227.40
2023-05-05T16:15:05.245Z,99228.00
2023-05-05T16:17:33.496Z,99223.00
2023-05-05T16:20:01.240Z,99223.60
2023-05-05T16:22:28.929Z,99221.20
2023-05-05T16:24:56.569Z,99218.60
2023-05-05T16:27:24.705Z,99223.00
2023-05-05T16:29:53.274Z,99219.80
2023-05-05T16:32:21.231Z,99219.00
2023-05-05T16:34:49.388Z,99219.40
2023-05-05T16:37:17.123Z,99223.00
2023-05-05T16:39:44.733Z,99221.00
2023-05-05T16:44:41.334Z,99219.60
2023-05-05T16:47:08.936Z,99214.40
2023-05-05T16:49:36.607Z,99221.80
2023-05-05T16:52:04.768Z,99220.00
2023-05-05T16:54:33.130Z,99225.60
2023-05-05T16:57:02.430Z,99227.20
2023-05-05T16:59:31.649Z,99227.60
2023-05-05T17:01:59.563Z,99225.40
2023-05-05T17:04:27.473Z,99227.00
2023-05-05T17:06:55.403Z,99230.20
2023-05-05T17:09:24.938Z,99234.00
2023-05-05T17:11:52.773Z,99232.60
2023-05-05T17:14:20.782Z,99235.40
2023-05-05T17:16:48.439Z,99234.40
2023-05-05T17:19:16.154Z,99238.40
2023-05-05T17:21:43.858Z,99235.20
2023-05-05T17:24:11.494Z,99237.20
2023-05-05T17:26:39.837Z,99233.20
2023-05-05T17:29:07.490Z,99237.20
2023-05-05T17:31:35.193Z,99239.60
2023-05-05T17:34:03.095Z,99245.00
2023-05-05T17:36:31.252Z,99245.40
2023-05-05T17:38:59.392Z,99248.80
2023-05-05T17:41:27.029Z,99245.80
2023-05-05T17:43:54.792Z,99248.00
2023-05-05T17:46:22.512Z,99253.20
2023-05-05T17:48:51.131Z,99256.20
2023-05-05T17:51:18.872Z,99253.40
2023-05-05T17:53:46.537Z,99251.80
2023-05-05T17:56:14.306Z,99256.40
2023-05-05T17:58:42.187Z,99256.80
2023-05-05T18:01:13.679Z,99261.80
2023-05-05T18:03:42.050Z,99257.00
2023-05-05T18:06:10.113Z,99261.60
2023-05-05T18:08:38.232Z,99260.60
2023-05-05T18:11:05.942Z,99263.40
2023-05-05T18:13:33.650Z,99266.60
2023-05-05T18:16:01.507Z,99261.20
2023-05-05T18:18:29.446Z,99261.80
2023-05-05T18:20:57.140Z,99262.40
2023-05-05T18:23:24.742Z,99265.60
2023-05-05T18:25:52.464Z,99259.40
2023-05-05T18:28:20.498Z,99259.40
2023-05-05T18:30:48.648Z,99262.00
2023-05-05T18:33:16.238Z,99266.40
2023-05-05T18:35:43.958Z,99272.80
2023-05-05T18:38:12.243Z,99271.20
2023-05-05T18:40:39.976Z,99276.40
2023-05-05T18:43:07.742Z,99280.60
2023-05-05T18:45:35.651Z,99289.20
2023-05-05T18:48:03.477Z,99288.60
2023-05-05T18:50:33.266Z,99284.80
2023-05-05T18:53:01.063Z,99288.80
2023-05-05T18:55:28.709Z,99291.20
2023-05-05T18:57:56.425Z,99286.40
2023-05-05T19:00:24.571Z,99293.60
2023-05-05T19:02:52.641Z,99288.00
2023-05-05T19:05:20.490Z,99293.40
2023-05-05T19:07:48.137Z,99288.00
2023-05-05T19:10:15.887Z,99285.00
2023-05-05T19:12:43.681Z,99289.80
2023-05-05T19:15:13.198Z,99293.20
2023-05-05T19:17:41.164Z,99286.60
2023-05-05T19:20:09.655Z,99285.40
2023-05-05T19:22:37.479Z,99281.20
2023-05-05T19:25:05.894Z,99285.60
2023-05-05T19:27:33.998Z,99284.60
2023-05-05T19:30:01.674Z,99284.80
2023-05-05T19:32:29.332Z,99283.60
2023-05-05T19:34:57.776Z,99282.40
2023-05-05T19:37:25.928Z,99285.20
2023-05-05T19:39:53.797Z,99289.20
2023-05-05T19:42:21.494Z,99289.20
2023-05-05T19:44:49.084Z,99291.60
2023-05-05T19:47:17.943Z,99294.20
2023-05-05T19:49:45.628Z,99291.00
2023-05-05T19:52:13.338Z,99289.20
2023-05-05T19:54:41.315Z,99290.00
2023-05-05T19:57:09.380Z,99287.80
2023-05-05T19:59:37.002Z,99289.60
2023-05-05T20:02:04.728Z,99295.40
2023-05-05T20:04:32.324Z,99302.00
2023-05-05T20:06:59.975Z,99303.40
2023-05-05T20:09:27.983Z,99303.60
2023-05-05T20:11:58.849Z,99298.20
2023-05-05T20:14:26.884Z,99298.40
2023-05-05T20:16:54.609Z,99297.00
2023-05-05T20:19:22.329Z,99297.20
2023-05-05T20:21:49.992Z,99298.40
2023-05-05T20:24:17.879Z,99296.60
2023-05-05T20:26:45.682Z,99300.80
2023-05-05T20:29:15.219Z,99306.80
2023-05-05T20:31:42.941Z,99314.60
2023-05-05T20:34:10.849Z,99308.40
2023-05-05T20:36:38.814Z,99309.20
2023-05-05T20:39:07.399Z,99303.40
2023-05-05T20:41:36.203Z,99306.00
2023-05-05T20:44:03.902Z,99299.00
2023-05-05T20:46:32.973Z,99296.20
2023-05-05T20:49:00.676Z,99296.60
2023-05-05T20:51:31.708Z,99305.60
2023-05-05T20:54:00.042Z,99308.00
2023-05-05T20:56:27.750Z,99300.00
2023-05-05T20:58:56.803Z,99310.20
2023-05-05T21:01:24.468Z,99305.80
2023-05-05T21:03:52.813Z,99307.00
2023-05-05T21:06:20.610Z,99305.80
2023-05-05T21:08:48.392Z,99303.20
2023-05-05T21:11:16.030Z,99302.00
2023-05-05T21:13:43.730Z,99304.60
2023-05-05T21:16:11.848Z,99299.40
2023-05-05T21:18:39.566Z,99293.40
2023-05-05T21:21:07.284Z,99297.20
2023-05-05T21:23:34.934Z,99294.40
2023-05-05T21:26:03.116Z,99293.80
2023-05-05T21:28:30.937Z,99294.20
2023-05-05T21:31:20.660Z,99287.80
2023-05-05T21:33:46.421Z,99285.00
2023-05-05T21:36:19.216Z,99284.80
2023-05-05T21:38:47.130Z,99284.20
2023-05-05T21:41:14.901Z,99281.20
2023-05-05T21:43:42.513Z,99282.80
2023-05-05T21:46:10.413Z,99277.80
2023-05-05T21:48:39.990Z,99279.00
2023-05-05T21:51:07.802Z,99276.40
2023-05-05T21:53:35.586Z,99278.00
2023-05-05T21:56:07.491Z,99272.60
2023-05-05T21:58:35.518Z,99269.60
2023-05-05T22:01:04.463Z,99269.40
2023-05-05T22:03:35.028Z,99268.40
2023-05-05T22:06:02.918Z,99272.40
2023-05-05T22:08:30.598Z,99267.00
2023-05-05T22:10:58.274Z,99268.00
2023-05-05T22:13:25.976Z,99267.80
2023-05-05T22:15:53.638Z,99272.40
2023-05-05T22:18:21.309Z,99269.80
2023-05-05T22:20:49.043Z,99272.40
2023-05-05T22:23:17.399Z,99270.40
2023-05-05T22:25:45.015Z,99267.40
2023-05-05T22:28:12.629Z,99266.00
2023-05-05T22:30:41.005Z,99269.80
2023-05-05T22:33:09.076Z,99261.20
2023-05-05T22:35:38.054Z,99257.20
2023-05-05T22:38:06.584Z,99257.00
2023-05-05T22:40:35.854Z,99248.40
2023-05-05T22:43:03.669Z,99253.40
2023-05-05T22:45:31.387Z,99251.60
2023-05-05T22:47:59.232Z,99251.40
2023-05-05T22:50:27.034Z,99244.20
2023-05-05T22:52:54.751Z,99240.80
2023-05-05T22:55:24.353Z,99238.60
2023-05-05T22:57:54.922Z,99239.40
2023-05-05T23:00:24.217Z,99240.80
2023-05-05T23:02:51.965Z,99239.80
2023-05-05T23:05:19.652Z,99245.80
2023-05-05T23:07:47.352Z,99246.20
2023-05-05T23:10:15.194Z,99251.40
2023-05-05T23:12:42.996Z,99256.00
2023-05-05T23:15:11.656Z,99257.20
2023-05-05T23:17:39.638Z,99260.80
2023-05-05T23:20:11.766Z,99253.00
2023-05-05T23:22:39.477Z,99249.20
2023-05-05T23:25:08.860Z,99246.60
2023-05-05T23:27:39.959Z,99238.60
2023-05-05T23:30:09.412Z,99234.80
2023-05-05T23:32:37.207Z,99239.00
2023-05-05T23:35:05.529Z,99246.20
2023-05-05T23:37:33.224Z,99239.00
2023-05-05T23:40:00.869Z,99236.00
2023-05-05T23:42:28.484Z,99238.40
2023-05-05T23:44:56.149Z,99228.80
2023-05-05T23:47:23.927Z,99229.80
2023-05-05T23:49:51.524Z,99218.80
2023-05-05T23:52:19.141Z,99205.80
2023-05-05T23:54:46.747Z,99207.20
2023-05-05T23:57:14.473Z,99210.20
2023-05-05T23:59:42.564Z,99206.80
